createdAt,value
2018-02-07T00:02:20.907Z,97151
2018-02-07T00:04:48.339Z,97151
2018-02-07T00:07:15.790Z,97152
2018-02-07T00:09:42.487Z,97158
2018-02-07T00:12:09.187Z,97148
2018-02-07T00:14:35.949Z,97153
2018-02-07T00:17:03.368Z,97146
2018-02-07T00:19:37.150Z,97143
2018-02-07T00:22:03.804Z,97138
2018-02-07T00:24:30.495Z,97132
2018-02-07T00:26:57.939Z,97124
2018-02-07T00:29:24.590Z,97124
2018-02-07T00:31:51.278Z,97122
2018-02-07T00:34:17.955Z,97121
2018-02-07T00:36:44.625Z,97114
2018-02-07T00:39:11.321Z,97118
2018-02-07T00:41:37.981Z,97119
2018-02-07T00:44:04.751Z,97111
2018-02-07T00:46:31.553Z,97105
2018-02-07T00:48:58.213Z,97105
2018-02-07T00:51:24.943Z,97110
2018-02-07T00:53:51.626Z,97103
2018-02-07T00:56:18.306Z,97098
2018-02-07T00:58:44.986Z,97095
2018-02-07T01:01:11.674Z,97094
2018-02-07T01:03:39.161Z,97089
2018-02-07T01:06:05.827Z,97084
2018-02-07T01:08:32.511Z,97082
2018-02-07T01:10:59.956Z,97085
2018-02-07T01:13:26.719Z,97081
2018-02-07T01:15:53.432Z,97079
2018-02-07T01:18:20.129Z,97078
2018-02-07T01:20:46.822Z,97068
2018-02-07T01:23:13.463Z,97069
2018-02-07T01:25:40.183Z,97057
2018-02-07T01:28:06.871Z,97061
2018-02-07T01:30:33.586Z,97052
2018-02-07T01:33:00.282Z,97056
2018-02-07T01:35:26.980Z,97055
2018-02-07T01:37:53.655Z,97050
2018-02-07T01:40:21.069Z,97050
2018-02-07T01:42:47.731Z,97054
2018-02-07T01:45:14.447Z,97045
2018-02-07T01:47:41.134Z,97044
2018-02-07T01:50:08.513Z,97046
2018-02-07T01:52:35.930Z,97046
2018-02-07T01:55:02.622Z,97043
2018-02-07T01:57:29.291Z,97044
2018-02-07T01:59:55.964Z,97040
2018-02-07T02:02:22.619Z,97045
2018-02-07T02:04:49.302Z,97038
2018-02-07T02:07:15.957Z,97037
2018-02-07T02:09:42.658Z,97035
2018-02-07T02:12:10.083Z,97030
2018-02-07T02:14:36.756Z,97023
2018-02-07T02:17:04.269Z,97020
2018-02-07T02:19:31.034Z,97017
2018-02-07T02:21:57.731Z,97012
2018-02-07T02:24:24.498Z,97007
2018-02-07T02:26:51.176Z,96992
2018-02-07T02:29:17.879Z,96998
2018-02-07T02:31:44.563Z,96986
2018-02-07T02:34:11.286Z,96978
2018-02-07T02:36:41.090Z,96975
2018-02-07T02:39:07.745Z,96964
2018-02-07T02:41:34.454Z,96961
2018-02-07T02:44:01.643Z,96961
2018-02-07T02:46:28.354Z,96957
2018-02-07T02:48:55.041Z,96946
2018-02-07T02:51:21.698Z,96940
2018-02-07T02:53:48.391Z,96933
2018-02-07T02:56:15.058Z,96928
2018-02-07T02:58:41.754Z,96927
2018-02-07T03:01:09.177Z,96923
2018-02-07T03:03:35.867Z,96919
2018-02-07T03:06:02.548Z,96914
2018-02-07T03:08:29.245Z,96918
2018-02-07T03:10:56.614Z,96910
2018-02-07T03:13:23.375Z,96910
2018-02-07T03:15:50.070Z,96903
2018-02-07T03:18:16.799Z,96901
2018-02-07T03:20:43.489Z,96897
2018-02-07T03:23:10.178Z,96898
2018-02-07T03:25:36.851Z,96906
2018-02-07T03:28:04.282Z,96902
2018-02-07T03:30:30.968Z,96902
2018-02-07T03:32:58.357Z,96909
2018-02-07T03:35:25.100Z,96909
2018-02-07T03:37:51.792Z,96908
2018-02-07T03:40:20.226Z,96907
2018-02-07T03:42:46.938Z,96909
2018-02-07T03:45:14.338Z,96908
2018-02-07T03:47:41.006Z,96905
2018-02-07T03:50:07.817Z,96904
2018-02-07T03:52:34.510Z,96903
2018-02-07T03:55:01.932Z,96905
2018-02-07T03:57:28.715Z,96904
2018-02-07T03:59:56.183Z,96902
2018-02-07T04:02:22.899Z,96894
2018-02-07T04:04:49.616Z,96898
2018-02-07T04:07:16.289Z,96895
2018-02-07T04:09:42.953Z,96899
2018-02-07T04:12:10.410Z,96902
2018-02-07T04:14:37.063Z,96894
2018-02-07T04:17:11.376Z,96885
2018-02-07T04:19:38.780Z,96893
2018-02-07T04:22:05.481Z,96888
2018-02-07T04:24:32.903Z,96888
2018-02-07T04:26:59.596Z,96891
2018-02-07T04:29:27.017Z,96889
2018-02-07T04:31:53.681Z,96880
2018-02-07T04:34:20.405Z,96877
2018-02-07T04:36:47.049Z,96882
2018-02-07T04:39:13.689Z,96873
2018-02-07T04:41:40.380Z,96873
2018-02-07T04:44:07.053Z,96868
2018-02-07T04:46:33.742Z,96857
2018-02-07T04:49:01.200Z,96850
2018-02-07T04:51:28.591Z,96847
2018-02-07T04:53:55.264Z,96847
2018-02-07T04:56:21.917Z,96851
2018-02-07T04:58:48.600Z,96850
2018-02-07T05:01:16.039Z,96853
2018-02-07T05:03:42.722Z,96859
2018-02-07T05:06:09.447Z,96852
2018-02-07T05:08:36.859Z,96851
2018-02-07T05:11:03.555Z,96855
2018-02-07T05:13:30.998Z,96855
2018-02-07T05:15:57.665Z,96855
2018-02-07T05:18:24.342Z,96856
2018-02-07T05:20:51.030Z,96852
2018-02-07T05:23:18.555Z,96850
2018-02-07T05:25:45.237Z,96850
2018-02-07T05:28:12.670Z,96854
2018-02-07T05:30:39.354Z,96850
2018-02-07T05:33:06.760Z,96849
2018-02-07T05:35:33.424Z,96853
2018-02-07T05:38:00.137Z,96852
2018-02-07T05:40:26.816Z,96847
2018-02-07T05:42:54.247Z,96856
2018-02-07T05:45:20.913Z,96843
2018-02-07T05:47:47.607Z,96844
2018-02-07T05:50:14.368Z,96841
2018-02-07T05:52:41.031Z,96841
2018-02-07T05:55:07.751Z,96844
2018-02-07T05:57:34.422Z,96843
2018-02-07T06:00:01.097Z,96846
2018-02-07T06:02:28.574Z,96847
2018-02-07T06:04:55.252Z,96850
2018-02-07T06:07:21.993Z,96852
2018-02-07T06:09:48.663Z,96851
2018-02-07T06:12:15.340Z,96846
2018-02-07T06:14:42.023Z,96847
2018-02-07T06:17:08.688Z,96847
2018-02-07T06:19:35.358Z,96841
2018-02-07T06:22:02.785Z,96831
2018-02-07T06:24:29.605Z,96835
2018-02-07T06:26:56.268Z,96828
2018-02-07T06:29:22.974Z,96824
2018-02-07T06:31:49.641Z,96823
2018-02-07T06:34:16.322Z,96827
2018-02-07T06:36:43.074Z,96826
2018-02-07T06:39:10.512Z,96827
2018-02-07T06:41:37.278Z,96826
2018-02-07T06:44:04.715Z,96832
2018-02-07T06:46:31.380Z,96829
2018-02-07T06:48:58.825Z,96819
2018-02-07T06:51:25.498Z,96815
2018-02-07T06:53:52.917Z,96804
2018-02-07T06:56:19.600Z,96799
2018-02-07T06:58:47.034Z,96797
2018-02-07T07:01:20.806Z,96795
2018-02-07T07:03:47.531Z,96793
2018-02-07T07:06:14.234Z,96789
2018-02-07T07:08:40.954Z,96789
2018-02-07T07:11:07.693Z,96788
2018-02-07T07:13:34.419Z,96781
2018-02-07T07:16:01.118Z,96778
2018-02-07T07:18:28.531Z,96779
2018-02-07T07:20:55.219Z,96771
2018-02-07T07:23:22.686Z,96773
2018-02-07T07:25:49.379Z,96774
2018-02-07T07:28:16.081Z,96761
2018-02-07T07:30:43.543Z,96761
2018-02-07T07:33:11.057Z,96758
2018-02-07T07:35:37.788Z,96755
2018-02-07T07:38:04.576Z,96750
2018-02-07T07:40:31.294Z,96752
2018-02-07T07:42:57.953Z,96751
2018-02-07T07:45:31.671Z,96746
2018-02-07T07:47:58.361Z,96737
2018-02-07T07:50:25.032Z,96738
2018-02-07T07:52:51.752Z,96742
2018-02-07T07:55:18.406Z,96736
2018-02-07T07:57:45.100Z,96741
2018-02-07T08:00:12.618Z,96739
2018-02-07T08:02:40.252Z,96744
2018-02-07T08:05:06.954Z,96741
2018-02-07T08:07:33.656Z,96740
2018-02-07T08:10:00.330Z,96739
2018-02-07T08:12:26.994Z,96735
2018-02-07T08:14:54.429Z,96736
2018-02-07T08:17:21.142Z,96732
2018-02-07T08:19:47.815Z,96741
2018-02-07T08:22:14.544Z,96746
2018-02-07T08:24:41.243Z,96745
2018-02-07T08:27:07.917Z,96747
2018-02-07T08:29:34.590Z,96751
2018-02-07T08:32:01.299Z,96748
2018-02-07T08:34:27.990Z,96746
2018-02-07T08:36:55.441Z,96743
2018-02-07T08:39:22.128Z,96742
2018-02-07T08:41:48.824Z,96740
2018-02-07T08:44:15.521Z,96741
2018-02-07T08:46:42.219Z,96731
2018-02-07T08:49:08.903Z,96724
2018-02-07T08:51:35.651Z,96725
2018-02-07T08:54:02.354Z,96727
2018-02-07T08:56:29.796Z,96726
2018-02-07T08:58:56.667Z,96724
2018-02-07T09:01:24.062Z,96726
2018-02-07T09:03:50.718Z,96724
2018-02-07T09:06:17.454Z,96729
2018-02-07T09:08:44.146Z,96730
2018-02-07T09:11:10.950Z,96722
2018-02-07T09:13:38.274Z,96718
2018-02-07T09:16:04.950Z,96722
2018-02-07T09:18:31.672Z,96726
2018-02-07T09:20:58.438Z,96724
2018-02-07T09:23:25.176Z,96722
2018-02-07T09:25:51.907Z,96728
2018-02-07T09:28:18.700Z,96732
2018-02-07T09:30:45.482Z,96729
2018-02-07T09:33:12.891Z,96733
2018-02-07T09:35:39.596Z,96733
2018-02-07T09:38:06.265Z,96739
2018-02-07T09:40:32.982Z,96736
2018-02-07T09:42:59.766Z,96740
2018-02-07T09:45:26.453Z,96738
2018-02-07T09:47:53.899Z,96731
2018-02-07T09:50:20.642Z,96723
2018-02-07T09:52:47.336Z,96722
2018-02-07T09:55:14.008Z,96719
2018-02-07T09:57:40.694Z,96714
2018-02-07T10:00:08.138Z,96716
2018-02-07T10:02:35.629Z,96716
2018-02-07T10:05:02.341Z,96717
2018-02-07T10:07:29.765Z,96721
2018-02-07T10:09:56.459Z,96721
2018-02-07T10:12:23.877Z,96718
2018-02-07T10:14:50.571Z,96720
2018-02-07T10:17:17.289Z,96719
2018-02-07T10:19:45.120Z,96719
2018-02-07T10:22:11.888Z,96716
2018-02-07T10:24:38.556Z,96719
2018-02-07T10:27:05.995Z,96718
2018-02-07T10:29:32.714Z,96714
2018-02-07T10:31:59.372Z,96722
2018-02-07T10:34:26.184Z,96716
2018-02-07T10:36:52.865Z,96710
2018-02-07T10:39:19.554Z,96699
2018-02-07T10:41:46.265Z,96696
2018-02-07T10:44:13.022Z,96696
2018-02-07T10:46:39.986Z,96699
2018-02-07T10:49:06.675Z,96695
2018-02-07T10:51:33.344Z,96700
2018-02-07T10:54:00.074Z,96703
2018-02-07T10:56:26.766Z,96705
2018-02-07T10:58:53.499Z,96698
2018-02-07T11:01:20.963Z,96696
2018-02-07T11:03:47.659Z,96694
2018-02-07T11:06:14.358Z,96693
2018-02-07T11:08:41.063Z,96693
2018-02-07T11:11:07.856Z,96689
2018-02-07T11:13:34.538Z,96694
2018-02-07T11:16:01.231Z,96692
2018-02-07T11:18:27.914Z,96693
2018-02-07T11:20:55.232Z,96692
2018-02-07T11:23:21.981Z,96696
2018-02-07T11:25:48.951Z,96695
2018-02-07T11:28:15.609Z,96686
2018-02-07T11:30:42.440Z,96676
2018-02-07T11:33:10.013Z,96675
2018-02-07T11:35:36.687Z,96676
2018-02-07T11:38:04.205Z,96688
2018-02-07T11:40:30.882Z,96696
2018-02-07T11:42:58.358Z,96693
2018-02-07T11:45:25.015Z,96682
2018-02-07T11:47:52.523Z,96685
2018-02-07T11:50:19.202Z,96687
2018-02-07T11:52:46.638Z,96683
2018-02-07T11:55:13.905Z,96684
2018-02-07T11:57:40.588Z,96682
2018-02-07T12:00:08.056Z,96674
2018-02-07T12:02:34.720Z,96665
2018-02-07T12:05:01.451Z,96671
2018-02-07T12:07:28.183Z,96671
2018-02-07T12:09:54.886Z,96666
2018-02-07T12:12:21.645Z,96662
2018-02-07T12:14:49.090Z,96664
2018-02-07T12:17:15.767Z,96662
2018-02-07T12:19:42.536Z,96662
2018-02-07T12:22:09.245Z,96663
2018-02-07T12:24:36.753Z,96657
2018-02-07T12:27:03.479Z,96663
2018-02-07T12:29:30.172Z,96656
2018-02-07T12:31:56.857Z,96660
2018-02-07T12:34:23.542Z,96659
2018-02-07T12:36:50.339Z,96654
2018-02-07T12:39:17.790Z,96651
2018-02-07T12:41:45.268Z,96650
2018-02-07T12:44:12.054Z,96646
2018-02-07T12:46:38.764Z,96648
2018-02-07T12:49:05.465Z,96652
2018-02-07T12:51:32.177Z,96652
2018-02-07T12:53:58.862Z,96649
2018-02-07T12:56:26.314Z,96646
2018-02-07T12:58:52.958Z,96649
2018-02-07T13:01:19.659Z,96657
2018-02-07T13:03:46.345Z,96653
2018-02-07T13:06:14.494Z,96657
2018-02-07T13:08:41.219Z,96660
2018-02-07T13:11:07.921Z,96663
2018-02-07T13:13:35.388Z,96656
2018-02-07T13:16:03.055Z,96650
2018-02-07T13:18:30.495Z,96645
2018-02-07T13:20:57.187Z,96653
2018-02-07T13:23:23.912Z,96648
2018-02-07T13:25:50.602Z,96652
2018-02-07T13:28:17.979Z,96651
2018-02-07T13:30:44.684Z,96658
2018-02-07T13:33:12.018Z,96649
2018-02-07T13:35:38.720Z,96648
2018-02-07T13:38:05.369Z,96644
2018-02-07T13:40:32.049Z,96641
2018-02-07T13:42:58.821Z,96637
2018-02-07T13:45:25.541Z,96638
2018-02-07T13:47:52.201Z,96638
2018-02-07T13:50:19.049Z,96648
2018-02-07T13:52:45.770Z,96641
2018-02-07T13:55:12.486Z,96643
2018-02-07T13:57:39.945Z,96647
2018-02-07T14:00:07.455Z,96641
2018-02-07T14:02:34.203Z,96645
2018-02-07T14:05:00.915Z,96643
2018-02-07T14:07:27.596Z,96651
2018-02-07T14:09:54.285Z,96652
2018-02-07T14:12:21.723Z,96656
2018-02-07T14:14:48.420Z,96647
2018-02-07T14:17:15.133Z,96654
2018-02-07T14:19:42.552Z,96659
2018-02-07T14:22:09.218Z,96660
2018-02-07T14:24:36.659Z,96658
2018-02-07T14:27:03.368Z,96660
2018-02-07T14:29:30.074Z,96649
2018-02-07T14:31:56.740Z,96641
2018-02-07T14:34:24.067Z,96639
2018-02-07T14:36:50.782Z,96637
2018-02-07T14:39:17.448Z,96644
2018-02-07T14:41:44.178Z,96646
2018-02-07T14:44:10.890Z,96644
2018-02-07T14:46:37.548Z,96640
2018-02-07T14:49:04.283Z,96639
2018-02-07T14:51:30.946Z,96643
2018-02-07T14:53:57.637Z,96640
2018-02-07T14:56:25.053Z,96640
2018-02-07T14:58:51.717Z,96645
2018-02-07T15:01:18.406Z,96655
2018-02-07T15:03:46.029Z,96652
2018-02-07T15:06:12.730Z,96648
2018-02-07T15:08:39.434Z,96648
2018-02-07T15:11:07.877Z,96641
2018-02-07T15:13:34.581Z,96632
2018-02-07T15:16:01.291Z,96624
2018-02-07T15:18:28.781Z,96619
2018-02-07T15:20:55.550Z,96621
2018-02-07T15:23:22.266Z,96621
2018-02-07T15:25:49.687Z,96623
2018-02-07T15:28:16.450Z,96627
2018-02-07T15:30:43.898Z,96626
2018-02-07T15:33:11.164Z,96628
2018-02-07T15:35:37.960Z,96638
2018-02-07T15:38:05.608Z,96634
2018-02-07T15:40:32.301Z,96640
2018-02-07T15:42:59.811Z,96642
2018-02-07T15:45:26.588Z,96640
2018-02-07T15:47:53.444Z,96639
2018-02-07T15:50:20.705Z,96644
2018-02-07T15:52:47.448Z,96650
2018-02-07T15:55:14.154Z,96647
2018-02-07T15:57:40.973Z,96643
2018-02-07T16:00:08.746Z,96647
2018-02-07T16:02:36.189Z,96645
2018-02-07T16:05:02.946Z,96646
2018-02-07T16:07:30.370Z,96642
2018-02-07T16:09:57.125Z,96637
2018-02-07T16:12:23.897Z,96633
2018-02-07T16:14:51.374Z,96626
2018-02-07T16:17:18.144Z,96618
2018-02-07T16:19:44.822Z,96622
2018-02-07T16:22:11.605Z,96620
2018-02-07T16:24:38.344Z,96623
2018-02-07T16:27:05.792Z,96628
2018-02-07T16:29:33.229Z,96628
2018-02-07T16:32:00.103Z,96626
2018-02-07T16:34:26.834Z,96627
2018-02-07T16:36:53.736Z,96626
2018-02-07T16:39:20.598Z,96634
2018-02-07T16:41:47.271Z,96633
2018-02-07T16:44:20.842Z,96635
2018-02-07T16:46:47.644Z,96648
2018-02-07T16:49:14.956Z,96650
2018-02-07T16:51:42.484Z,96650
2018-02-07T16:54:09.193Z,96655
2018-02-07T16:56:36.678Z,96665
2018-02-07T16:59:10.424Z,96673
2018-02-07T17:01:37.082Z,96669
2018-02-07T17:04:03.797Z,96676
2018-02-07T17:06:30.505Z,96679
2018-02-07T17:08:57.920Z,96680
2018-02-07T17:11:24.604Z,96680
2018-02-07T17:13:51.322Z,96679
2018-02-07T17:16:19.012Z,96689
2018-02-07T17:18:46.441Z,96682
2018-02-07T17:21:13.220Z,96679
2018-02-07T17:23:41.594Z,96670
2018-02-07T17:26:09.006Z,96678
2018-02-07T17:28:35.804Z,96680
2018-02-07T17:31:03.233Z,96683
2018-02-07T17:33:29.967Z,96680
2018-02-07T17:35:56.668Z,96686
2018-02-07T17:38:23.407Z,96686
2018-02-07T17:40:51.421Z,96676
2018-02-07T17:43:18.128Z,96683
2018-02-07T17:45:45.963Z,96684
2018-02-07T17:48:19.797Z,96683
2018-02-07T17:50:46.484Z,96683
2018-02-07T17:53:13.144Z,96687
2018-02-07T17:55:40.464Z,96687
2018-02-07T17:58:07.261Z,96676
2018-02-07T18:00:33.998Z,96671
2018-02-07T18:03:00.707Z,96669
2018-02-07T18:05:27.429Z,96665
2018-02-07T18:07:55.257Z,96673
2018-02-07T18:10:22.330Z,96676
2018-02-07T18:12:49.787Z,96678
2018-02-07T18:15:17.201Z,96682
2018-02-07T18:17:44.668Z,96688
2018-02-07T18:20:11.402Z,96684
2018-02-07T18:22:38.112Z,96687
2018-02-07T18:25:05.509Z,96694
2018-02-07T18:27:32.199Z,96699
2018-02-07T18:29:59.630Z,96701
2018-02-07T18:32:26.457Z,96702
2018-02-07T18:34:53.626Z,96697
2018-02-07T18:37:21.128Z,96694
2018-02-07T18:39:48.567Z,96698
2018-02-07T18:42:15.270Z,96696
2018-02-07T18:44:42.076Z,96694
2018-02-07T18:47:08.866Z,96701
2018-02-07T18:49:36.595Z,96705
2018-02-07T18:52:04.118Z,96707
2018-02-07T18:54:30.856Z,96703
2018-02-07T18:56:57.672Z,96699
2018-02-07T18:59:24.567Z,96698
2018-02-07T19:01:51.240Z,96696
2018-02-07T19:04:18.658Z,96697
2018-02-07T19:06:45.380Z,96698
2018-02-07T19:09:12.129Z,96700
2018-02-07T19:11:38.922Z,96702
2018-02-07T19:14:06.358Z,96699
2018-02-07T19:16:33.093Z,96697
2018-02-07T19:18:59.803Z,96695
2018-02-07T19:21:26.526Z,96699
2018-02-07T19:23:54.018Z,96701
2018-02-07T19:26:20.701Z,96699
2018-02-07T19:28:47.426Z,96706
2018-02-07T19:31:14.126Z,96704
2018-02-07T19:33:41.567Z,96702
2018-02-07T19:36:09.033Z,96702
2018-02-07T19:38:36.487Z,96702
2018-02-07T19:41:03.978Z,96700
2018-02-07T19:43:30.671Z,96698
2018-02-07T19:45:57.392Z,96698
2018-02-07T19:48:24.191Z,96694
2018-02-07T19:50:51.631Z,96702
2018-02-07T19:53:18.349Z,96703
2018-02-07T19:55:45.067Z,96702
2018-02-07T19:58:11.797Z,96699
2018-02-07T20:00:38.503Z,96699
2018-02-07T20:03:05.182Z,96697
2018-02-07T20:05:31.902Z,96696
2018-02-07T20:07:58.578Z,96698
2018-02-07T20:10:25.278Z,96698
2018-02-07T20:12:51.960Z,96698
2018-02-07T20:15:18.639Z,96697
2018-02-07T20:17:45.344Z,96697
2018-02-07T20:20:12.070Z,96698
2018-02-07T20:22:39.457Z,96702
2018-02-07T20:25:06.151Z,96696
2018-02-07T20:27:32.902Z,96699
2018-02-07T20:29:59.599Z,96697
2018-02-07T20:32:26.344Z,96693
2018-02-07T20:34:53.180Z,96699
2018-02-07T20:37:19.869Z,96692
2018-02-07T20:39:46.585Z,96696
2018-02-07T20:42:13.482Z,96701
2018-02-07T20:44:41.024Z,96698
2018-02-07T20:47:07.822Z,96697
2018-02-07T20:49:34.603Z,96699
2018-02-07T20:52:01.301Z,96695
2018-02-07T20:54:28.117Z,96697
2018-02-07T20:56:55.576Z,96693
2018-02-07T20:59:22.300Z,96689
2018-02-07T21:01:48.970Z,96683
2018-02-07T21:04:16.498Z,96678
2018-02-07T21:06:43.215Z,96682
2018-02-07T21:09:09.914Z,96679
2018-02-07T21:11:37.373Z,96678
2018-02-07T21:14:04.124Z,96678
2018-02-07T21:16:31.571Z,96680
2018-02-07T21:18:58.254Z,96679
2018-02-07T21:21:25.068Z,96679
2018-02-07T21:23:52.589Z,96678
2018-02-07T21:26:19.280Z,96682
2018-02-07T21:28:46.724Z,96680
2018-02-07T21:31:13.509Z,96683
2018-02-07T21:33:40.157Z,96681
2018-02-07T21:36:06.835Z,96676
2018-02-07T21:38:33.512Z,96679
2018-02-07T21:41:00.949Z,96678
2018-02-07T21:43:27.723Z,96672
2018-02-07T21:45:56.299Z,96675
2018-02-07T21:48:23.099Z,96674
2018-02-07T21:50:49.777Z,96681
2018-02-07T21:53:16.551Z,96682
2018-02-07T21:55:44.022Z,96684
2018-02-07T21:58:10.708Z,96686
2018-02-07T22:00:37.443Z,96677
2018-02-07T22:03:04.112Z,96676
2018-02-07T22:05:30.830Z,96672
2018-02-07T22:07:57.640Z,96678
2018-02-07T22:10:24.365Z,96670
2018-02-07T22:12:51.928Z,96669
2018-02-07T22:15:19.362Z,96675
2018-02-07T22:17:46.085Z,96671
2018-02-07T22:20:12.864Z,96675
2018-02-07T22:22:39.542Z,96676
2018-02-07T22:25:06.243Z,96676
2018-02-07T22:27:32.942Z,96681
2018-02-07T22:29:59.662Z,96678
2018-02-07T22:32:27.164Z,96681
2018-02-07T22:34:53.869Z,96677
2018-02-07T22:37:21.278Z,96683
2018-02-07T22:39:48.053Z,96682
2018-02-07T22:42:14.744Z,96684
2018-02-07T22:44:41.454Z,96681
2018-02-07T22:47:08.912Z,96682
2018-02-07T22:49:36.868Z,96684
2018-02-07T22:52:03.586Z,96685
2018-02-07T22:54:30.278Z,96686
2018-02-07T22:56:57.777Z,96684
2018-02-07T22:59:24.446Z,96683
2018-02-07T23:01:51.157Z,96683
2018-02-07T23:04:17.829Z,96687
2018-02-07T23:06:44.569Z,96682
2018-02-07T23:09:11.252Z,96687
2018-02-07T23:11:38.698Z,96684
2018-02-07T23:14:05.414Z,96683
2018-02-07T23:16:32.127Z,96690
2018-02-07T23:18:58.817Z,96700
2018-02-07T23:21:26.987Z,96690
2018-02-07T23:23:53.637Z,96693
2018-02-07T23:26:20.325Z,96696
2018-02-07T23:28:47.018Z,96699
2018-02-07T23:31:13.706Z,96699
2018-02-07T23:33:40.386Z,96700
2018-02-07T23:36:07.120Z,96697
2018-02-07T23:38:33.797Z,96697
2018-02-07T23:41:00.475Z,96696
2018-02-07T23:43:27.934Z,96687
2018-02-07T23:45:54.658Z,96691
2018-02-07T23:48:21.327Z,96685
2018-02-07T23:50:48.000Z,96690
2018-02-07T23:53:14.692Z,96689
2018-02-07T23:55:42.118Z,96694
2018-02-07T23:58:08.868Z,96688
